Time;durP1;ratioP1;P1;durP2;ratioP2;P2;SDS_P1;SDS_P2;PMS_P1;PMS_P2;Temp;Humidity;BMP_temperature;BMP_pressure;BME280_temperature;BME280_humidity;BME280_pressure;Samples;Min_cycle;Max_cycle;Signal;HPM_P1;HPM_P2
2022/08/20 00:01:18;;;;;;;9.23;6.97;;;23.20;70.40;;;;;;5079956;28;20908;-78
2022/08/20 00:03:45;;;;;;;11.17;7.90;;;23.10;70.30;;;;;;5078818;28;20562;-78
2022/08/20 00:06:22;;;;;;;12.40;7.27;;;23.10;70.30;;;;;;5080870;28;20465;-78
2022/08/20 00:08:51;;;;;;;10.03;7.40;;;23.10;70.10;;;;;;5084341;28;20844;-78
2022/08/20 00:11:23;;;;;;;9.87;7.50;;;23.00;70.10;;;;;;5069008;28;20458;-78
2022/08/20 00:13:54;;;;;;;9.97;7.83;;;23.00;70.00;;;;;;5076961;28;20485;-78
2022/08/20 00:16:25;;;;;;;10.87;7.60;;;23.00;69.90;;;;;;5060744;28;20478;-78
2022/08/20 00:18:53;;;;;;;12.23;9.20;;;23.00;69.80;;;;;;5076881;28;20444;-78
2022/08/20 00:21:23;;;;;;;11.33;8.50;;;23.00;69.70;;;;;;5079039;28;20923;-78
2022/08/20 00:23:55;;;;;;;13.70;9.50;;;23.00;69.50;;;;;;5060804;28;20464;-78
2022/08/20 00:26:24;;;;;;;10.13;8.40;;;23.00;69.30;;;;;;5077220;28;20475;-78
2022/08/20 00:28:52;;;;;;;10.00;8.40;;;23.00;69.20;;;;;;5062346;28;20473;-79
2022/08/20 00:31:23;;;;;;;14.50;8.60;;;22.90;69.00;;;;;;5079235;28;20481;-77
2022/08/20 00:33:52;;;;;;;12.03;9.13;;;22.90;69.00;;;;;;5076924;28;20469;-76
2022/08/20 00:36:21;;;;;;;11.17;8.90;;;22.90;68.90;;;;;;5074652;28;20474;-77
2022/08/20 00:39:01;;;;;;;12.87;9.53;;;22.90;68.80;;;;;;5073713;28;20462;-79
2022/08/20 00:41:29;;;;;;;10.07;8.53;;;22.90;68.70;;;;;;5080614;28;20468;-79
2022/08/20 00:44:08;;;;;;;11.73;8.40;;;22.80;68.60;;;;;;5076679;28;20452;-79
2022/08/20 00:46:37;;;;;;;12.97;9.53;;;22.80;68.50;;;;;;5074020;28;20469;-77
2022/08/20 00:49:07;;;;;;;11.43;9.20;;;22.70;68.50;;;;;;5078747;28;20488;-78
2022/08/20 00:51:39;;;;;;;12.30;8.87;;;22.70;68.40;;;;;;5075785;28;20463;-79
2022/08/20 00:54:14;;;;;;;11.47;8.50;;;22.70;68.30;;;;;;5076921;28;20500;-78
2022/08/20 00:56:43;;;;;;;11.53;8.80;;;22.70;68.20;;;;;;5077614;28;20452;-78
2022/08/20 00:59:16;;;;;;;11.73;9.03;;;22.60;68.20;;;;;;5080277;28;20456;-78
2022/08/20 01:01:46;;;;;;;11.57;9.10;;;22.60;68.10;;;;;;5074955;28;20466;-79
2022/08/20 01:04:25;;;;;;;13.10;9.63;;;22.50;68.10;;;;;;5082960;28;20464;-78
2022/08/20 01:06:53;;;;;;;11.70;9.27;;;22.50;68.10;;;;;;5080655;28;20511;-78
2022/08/20 01:09:24;;;;;;;10.97;8.60;;;22.50;68.00;;;;;;5073528;28;20486;-78
2022/08/20 01:12:13;;;;;;;14.03;9.10;;;22.40;68.00;;;;;;5077551;28;20478;-78
2022/08/20 01:14:44;;;;;;;11.63;8.63;;;22.40;68.00;;;;;;5074051;28;20481;-78
2022/08/20 01:17:17;;;;;;;12.07;9.17;;;22.40;68.00;;;;;;5060819;28;20470;-78
2022/08/20 01:19:50;;;;;;;10.80;8.50;;;22.40;68.00;;;;;;5077141;28;20459;-78
2022/08/20 01:25:19;;;;;;;12.47;9.80;;;22.40;68.00;;;;;;5080273;28;20488;-78
2022/08/20 01:27:50;;;;;;;12.33;8.27;;;22.30;68.00;;;;;;5076153;28;20802;-78
2022/08/20 01:30:26;;;;;;;11.70;9.10;;;22.30;68.00;;;;;;5077734;28;20953;-78
2022/08/20 01:32:54;;;;;;;17.33;10.00;;;22.40;68.00;;;;;;5076912;28;20459;-79
2022/08/20 01:35:23;;;;;;;12.30;9.00;;;22.40;68.00;;;;;;5080788;28;20483;-79
2022/08/20 01:37:52;;;;;;;13.30;9.57;;;22.40;68.00;;;;;;5078270;28;20464;-77
2022/08/20 01:40:29;;;;;;;13.33;10.33;;;22.40;68.00;;;;;;5077687;28;20450;-78
2022/08/20 01:42:58;;;;;;;14.47;9.77;;;22.40;67.90;;;;;;5065077;28;20463;-78
2022/08/20 01:45:27;;;;;;;11.47;9.70;;;22.40;68.00;;;;;;5057666;28;20480;-79
2022/08/20 01:47:57;;;;;;;10.60;8.67;;;22.40;68.00;;;;;;5065984;28;20485;-79
2022/08/20 01:50:29;;;;;;;12.03;8.13;;;22.40;68.00;;;;;;5084177;28;20474;-79
2022/08/20 01:53:03;;;;;;;12.40;8.43;;;22.40;68.00;;;;;;5078523;28;20514;-77
2022/08/20 01:55:31;;;;;;;11.60;9.07;;;22.40;68.00;;;;;;5077498;28;20582;-77
2022/08/20 01:58:01;;;;;;;11.43;9.80;;;22.40;68.00;;;;;;5075921;28;20473;-79
2022/08/20 02:00:31;;;;;;;10.20;7.87;;;22.40;68.00;;;;;;5079292;28;20489;-77
2022/08/20 02:02:59;;;;;;;15.43;10.33;;;22.40;68.00;;;;;;5058587;28;20822;-78
2022/08/20 02:05:27;;;;;;;11.57;8.47;;;22.40;68.00;;;;;;5073816;28;20476;-77
2022/08/20 02:07:58;;;;;;;10.90;9.10;;;22.40;68.00;;;;;;5075234;28;20528;-77
2022/08/20 02:10:26;;;;;;;11.70;9.10;;;22.40;68.00;;;;;;5076823;28;20480;-79
2022/08/20 02:12:58;;;;;;;12.20;9.40;;;22.40;68.00;;;;;;5078635;28;20540;-78
2022/08/20 02:15:28;;;;;;;11.87;9.53;;;22.40;68.10;;;;;;5075147;28;20472;-78
2022/08/20 02:18:05;;;;;;;14.57;8.57;;;22.40;68.10;;;;;;5080483;28;20474;-78
2022/08/20 02:20:35;;;;;;;11.80;8.47;;;22.40;68.20;;;;;;5065406;28;20457;-78
2022/08/20 02:23:05;;;;;;;12.70;8.97;;;22.40;68.20;;;;;;5076491;28;20471;-77
2022/08/20 02:25:37;;;;;;;10.87;8.10;;;22.40;68.20;;;;;;5078452;28;20473;-79
2022/08/20 02:28:12;;;;;;;12.90;8.80;;;22.40;68.10;;;;;;5059601;28;20464;-78
2022/08/20 02:30:45;;;;;;;13.00;8.70;;;22.40;68.10;;;;;;5076950;28;20468;-79
2022/08/20 02:33:16;;;;;;;10.73;7.87;;;22.40;68.10;;;;;;5077659;28;20471;-78
2022/08/20 02:35:46;;;;;;;12.73;8.40;;;22.40;68.10;;;;;;5073617;28;20477;-78
2022/08/20 02:38:15;;;;;;;16.00;8.50;;;22.40;68.00;;;;;;5070481;28;20442;-78
2022/08/20 02:40:45;;;;;;;10.20;8.00;;;22.50;67.90;;;;;;5079597;28;20459;-78
2022/08/20 02:43:14;;;;;;;16.30;9.53;;;22.40;67.90;;;;;;5082002;28;20466;-79
2022/08/20 02:45:43;;;;;;;12.70;8.73;;;22.40;67.80;;;;;;5074213;28;20594;-79
2022/08/20 02:48:19;;;;;;;12.23;7.77;;;22.40;67.80;;;;;;5075250;28;20469;-79
2022/08/20 02:50:50;;;;;;;10.27;7.73;;;22.40;67.70;;;;;;5074911;28;20481;-78
2022/08/20 02:53:18;;;;;;;11.67;8.63;;;22.40;67.70;;;;;;5079889;28;20447;-79
2022/08/20 02:55:46;;;;;;;10.53;7.97;;;22.40;67.70;;;;;;5076952;28;20484;-79
2022/08/20 02:58:14;;;;;;;12.97;7.53;;;22.40;67.70;;;;;;5074954;28;20461;-79
2022/08/20 03:00:44;;;;;;;10.37;7.80;;;22.40;67.70;;;;;;5077270;28;20469;-79
2022/08/20 03:03:14;;;;;;;12.37;7.60;;;22.50;67.60;;;;;;5073767;28;20953;-78
2022/08/20 03:05:44;;;;;;;10.07;7.43;;;22.50;67.70;;;;;;5072437;28;20900;-79
2022/08/20 03:08:13;;;;;;;11.37;7.60;;;22.50;67.60;;;;;;5071461;28;21148;-78
2022/08/20 03:10:43;;;;;;;11.17;7.40;;;22.50;67.60;;;;;;5076231;28;20471;-78
2022/08/20 03:13:13;;;;;;;11.27;8.33;;;22.50;67.60;;;;;;5072160;28;20458;-78
2022/08/20 03:15:45;;;;;;;13.33;8.13;;;22.50;67.50;;;;;;5076433;28;20991;-78
2022/08/20 03:18:14;;;;;;;13.83;8.37;;;22.50;67.50;;;;;;5072286;28;20473;-78
2022/08/20 03:20:43;;;;;;;11.33;7.57;;;22.50;67.50;;;;;;5091082;28;20539;-77
2022/08/20 03:23:13;;;;;;;10.37;7.97;;;22.50;67.40;;;;;;5073711;28;20473;-77
2022/08/20 03:25:41;;;;;;;11.40;7.47;;;22.50;67.40;;;;;;5074689;28;20998;-78
2022/08/20 03:28:09;;;;;;;10.97;7.37;;;22.40;67.40;;;;;;5075735;28;20502;-79
2022/08/20 03:30:37;;;;;;;11.10;7.30;;;22.40;67.40;;;;;;5073334;28;20474;-78
2022/08/20 03:33:07;;;;;;;10.20;7.37;;;22.40;67.40;;;;;;5075446;28;20470;-77
2022/08/20 03:35:36;;;;;;;9.30;6.90;;;22.40;67.40;;;;;;5077894;28;20494;-79
2022/08/20 03:38:08;;;;;;;11.63;7.63;;;22.40;67.40;;;;;;5076376;28;21204;-79
2022/08/20 03:40:38;;;;;;;9.93;7.30;;;22.40;67.40;;;;;;5076081;28;20449;-79
2022/08/20 03:43:08;;;;;;;11.40;8.23;;;22.40;67.30;;;;;;5059276;28;20464;-78
2022/08/20 03:45:38;;;;;;;10.70;7.27;;;22.40;67.30;;;;;;5054862;28;20467;-78
2022/08/20 03:48:09;;;;;;;10.20;7.80;;;22.40;67.20;;;;;;5077036;28;20459;-78
2022/08/20 03:50:40;;;;;;;15.37;9.50;;;22.40;67.20;;;;;;5072984;28;20462;-78
2022/08/20 03:53:11;;;;;;;9.80;7.80;;;22.30;67.20;;;;;;5074504;28;20464;-78
2022/08/20 03:55:44;;;;;;;11.23;8.17;;;22.30;67.20;;;;;;5075352;28;20474;-78
2022/08/20 03:58:13;;;;;;;11.60;7.50;;;22.30;67.30;;;;;;5077972;28;20493;-78
2022/08/20 04:00:43;;;;;;;12.20;7.77;;;22.30;67.30;;;;;;5069518;28;20476;-77
2022/08/20 04:03:13;;;;;;;10.40;8.10;;;22.20;67.40;;;;;;5075141;28;20447;-77
2022/08/20 04:05:41;;;;;;;13.23;7.33;;;22.20;67.30;;;;;;5076731;28;20475;-79
2022/08/20 04:08:13;;;;;;;10.50;8.03;;;22.20;67.30;;;;;;5073595;28;20492;-79
2022/08/20 04:10:42;;;;;;;13.50;8.27;;;22.20;67.30;;;;;;5064256;28;20522;-77
2022/08/20 04:13:10;;;;;;;10.53;7.50;;;22.20;67.30;;;;;;5076528;28;20480;-78
2022/08/20 04:15:38;;;;;;;12.57;8.80;;;22.10;67.40;;;;;;5073982;28;20480;-78
2022/08/20 04:18:08;;;;;;;13.03;8.47;;;22.20;67.50;;;;;;5076219;28;20500;-79
2022/08/20 04:20:41;;;;;;;9.73;7.13;;;22.10;67.50;;;;;;5077529;28;20451;-78
2022/08/20 04:23:09;;;;;;;11.70;8.20;;;22.10;67.60;;;;;;5064808;28;20845;-79
2022/08/20 04:25:39;;;;;;;10.67;7.73;;;22.10;67.60;;;;;;5076269;28;20481;-77
2022/08/20 04:28:13;;;;;;;9.07;7.03;;;22.10;67.70;;;;;;5070613;28;20831;-78
2022/08/20 04:30:42;;;;;;;11.53;7.73;;;22.10;67.70;;;;;;5082813;28;20494;-77
2022/08/20 04:33:18;;;;;;;12.50;7.37;;;22.10;67.80;;;;;;5080909;28;20449;-76
2022/08/20 04:36:04;;;;;;;12.43;7.37;;;22.10;67.90;;;;;;5080156;28;20476;-78
2022/08/20 04:38:33;;;;;;;11.80;7.87;;;22.10;67.90;;;;;;5057465;28;20465;-78
2022/08/20 04:41:18;;;;;;;10.67;7.97;;;22.10;68.00;;;;;;5061395;28;20456;-78
2022/08/20 04:43:51;;;;;;;11.60;7.93;;;22.10;68.10;;;;;;5081696;28;20506;-78
2022/08/20 04:46:20;;;;;;;10.60;7.37;;;22.10;68.20;;;;;;5079134;28;20494;-78
2022/08/20 04:48:48;;;;;;;15.47;8.20;;;22.10;68.30;;;;;;5080450;28;20942;-78
2022/08/20 04:51:19;;;;;;;9.67;7.10;;;22.10;68.30;;;;;;5064092;28;20827;-78
2022/08/20 04:53:51;;;;;;;11.90;7.63;;;22.10;68.40;;;;;;5079193;28;20460;-77
2022/08/20 04:56:22;;;;;;;10.43;7.53;;;22.20;68.50;;;;;;5078225;28;20472;-79
2022/08/20 04:58:51;;;;;;;11.23;7.70;;;22.20;68.60;;;;;;5080145;28;20470;-79
2022/08/20 05:01:20;;;;;;;11.70;7.83;;;22.20;68.60;;;;;;5081547;28;20476;-79
2022/08/20 05:03:49;;;;;;;10.47;7.10;;;22.20;68.70;;;;;;5075333;28;20540;-78
2022/08/20 05:06:18;;;;;;;10.07;6.77;;;22.20;68.80;;;;;;5083530;28;20473;-78
2022/08/20 05:08:46;;;;;;;11.00;7.10;;;22.30;68.80;;;;;;5080978;28;20479;-78
2022/08/20 05:11:15;;;;;;;11.63;7.70;;;22.30;68.90;;;;;;5085094;28;20524;-79
2022/08/20 05:14:04;;;;;;;12.07;8.13;;;22.30;68.90;;;;;;5063624;28;20467;-79
2022/08/20 05:16:36;;;;;;;10.40;7.50;;;22.30;69.00;;;;;;5085649;28;20517;-79
2022/08/20 05:19:05;;;;;;;10.10;6.70;;;22.30;69.10;;;;;;5087553;28;20555;-79
2022/08/20 05:21:34;;;;;;;12.87;8.33;;;22.30;69.10;;;;;;5082800;28;20464;-78
2022/08/20 05:24:03;;;;;;;11.77;7.60;;;22.30;69.20;;;;;;5084251;28;20471;-78
2022/08/20 05:26:32;;;;;;;10.60;7.33;;;22.30;69.30;;;;;;5090973;28;20490;-77
2022/08/20 05:29:01;;;;;;;12.90;7.30;;;22.40;69.30;;;;;;5087866;28;20462;-77
2022/08/20 05:31:30;;;;;;;11.00;7.53;;;22.40;69.40;;;;;;5082378;28;20487;-79
2022/08/20 05:34:01;;;;;;;10.73;7.07;;;22.40;69.50;;;;;;5088277;28;20454;-79
2022/08/20 05:36:29;;;;;;;10.20;6.70;;;22.40;69.50;;;;;;5086179;28;20480;-78
2022/08/20 05:38:59;;;;;;;11.07;7.13;;;22.40;69.60;;;;;;5084745;28;20791;-78
2022/08/20 05:41:28;;;;;;;10.80;7.00;;;22.40;69.70;;;;;;5080828;28;20450;-78
2022/08/20 05:44:00;;;;;;;12.03;6.93;;;22.40;69.70;;;;;;5082309;28;20622;-77
2022/08/20 05:46:29;;;;;;;9.90;6.53;;;22.50;69.80;;;;;;5077499;28;20473;-78
2022/08/20 05:48:58;;;;;;;11.37;7.33;;;22.50;69.90;;;;;;5076565;28;20962;-78
2022/08/20 05:51:27;;;;;;;11.60;6.87;;;22.50;69.90;;;;;;5079584;28;21004;-78
2022/08/20 05:53:56;;;;;;;11.63;6.70;;;22.50;70.00;;;;;;5078029;28;20457;-78
2022/08/20 05:56:28;;;;;;;10.10;6.53;;;22.60;70.00;;;;;;5076998;28;20479;-78
2022/08/20 05:58:58;;;;;;;13.83;6.90;;;22.60;70.00;;;;;;5089322;28;20460;-79
2022/08/20 06:01:26;;;;;;;10.77;6.93;;;22.60;70.10;;;;;;5082506;28;20882;-78
2022/08/20 06:06:40;;;;;;;11.73;7.30;;;22.70;70.20;;;;;;5078704;28;21086;-77
2022/08/20 06:09:14;;;;;;;9.67;6.60;;;22.70;70.30;;;;;;5080757;28;20531;-79
2022/08/20 06:11:43;;;;;;;9.63;7.13;;;22.70;70.40;;;;;;5082408;28;20546;-77
2022/08/20 06:14:11;;;;;;;15.63;7.90;;;22.80;70.40;;;;;;5076739;28;20461;-77
2022/08/20 06:16:39;;;;;;;9.50;6.70;;;22.80;70.50;;;;;;5073155;28;20472;-76
2022/08/20 06:19:24;;;;;;;11.63;6.87;;;22.90;70.50;;;;;;5078624;28;20537;-78
2022/08/20 06:21:53;;;;;;;11.10;7.60;;;22.90;70.50;;;;;;5074965;28;20571;-77
2022/08/20 06:24:21;;;;;;;11.63;7.53;;;22.90;70.50;;;;;;5077540;28;20503;-77
2022/08/20 06:26:56;;;;;;;12.73;7.73;;;22.80;70.60;;;;;;5077082;28;21125;-77
2022/08/20 06:29:24;;;;;;;8.80;6.87;;;22.90;70.70;;;;;;5073918;28;20458;-78
2022/08/20 06:31:52;;;;;;;8.63;6.63;;;22.90;70.70;;;;;;5075233;28;20517;-79
2022/08/20 06:34:20;;;;;;;8.97;7.07;;;22.90;70.70;;;;;;5076622;28;20468;-78
2022/08/20 06:36:48;;;;;;;8.80;6.63;;;22.90;70.70;;;;;;5074115;28;20458;-77
2022/08/20 06:39:16;;;;;;;13.63;7.07;;;22.90;70.70;;;;;;5075286;28;20465;-78
2022/08/20 06:41:44;;;;;;;10.30;6.67;;;22.90;70.80;;;;;;5076659;28;20448;-78
2022/08/20 06:44:14;;;;;;;9.23;6.97;;;22.90;70.90;;;;;;5074124;28;20468;-78
2022/08/20 06:46:42;;;;;;;9.90;6.47;;;22.90;70.90;;;;;;5075578;28;20470;-78
2022/08/20 06:49:10;;;;;;;14.27;6.70;;;22.90;70.90;;;;;;5074335;28;20455;-78
2022/08/20 06:51:38;;;;;;;12.77;6.73;;;23.00;70.90;;;;;;5074959;28;20462;-78
2022/08/20 06:54:08;;;;;;;10.10;5.90;;;23.00;70.90;;;;;;5066149;28;20469;-78
2022/08/20 06:56:36;;;;;;;9.87;6.07;;;23.00;70.80;;;;;;5077377;28;20468;-78
2022/08/20 06:59:04;;;;;;;13.27;7.33;;;23.00;70.80;;;;;;5078707;28;20480;-79
2022/08/20 07:01:34;;;;;;;12.23;7.17;;;23.10;70.80;;;;;;5074147;28;21327;-79
2022/08/20 07:04:04;;;;;;;10.83;5.40;;;23.10;70.80;;;;;;5072111;28;20467;-79
2022/08/20 07:06:32;;;;;;;10.40;6.60;;;23.10;70.80;;;;;;5077310;28;20481;-78
2022/08/20 07:09:00;;;;;;;9.20;5.83;;;23.10;70.90;;;;;;5079033;28;20485;-76
2022/08/20 07:11:28;;;;;;;11.13;6.63;;;23.10;70.90;;;;;;5073953;28;20450;-76
2022/08/20 07:13:56;;;;;;;8.00;5.80;;;23.20;71.00;;;;;;5076218;28;20478;-78
2022/08/20 07:16:25;;;;;;;9.37;5.70;;;23.20;71.00;;;;;;5072951;28;20499;-78
2022/08/20 07:18:55;;;;;;;12.90;7.67;;;23.20;71.00;;;;;;5076443;28;20456;-77
2022/08/20 07:21:23;;;;;;;10.87;5.80;;;23.20;71.10;;;;;;5072825;28;20947;-77
2022/08/20 07:23:51;;;;;;;9.63;6.37;;;23.20;71.20;;;;;;5073451;28;21364;-77
2022/08/20 07:26:20;;;;;;;9.73;6.53;;;23.20;71.10;;;;;;5079520;28;20944;-77
2022/08/20 07:28:48;;;;;;;11.17;6.03;;;23.20;71.10;;;;;;5074159;28;20458;-77
2022/08/20 07:34:03;;;;;;;8.93;5.50;;;23.30;71.20;;;;;;5091482;28;20474;-78
2022/08/20 07:36:32;;;;;;;7.17;4.53;;;23.30;71.30;;;;;;5076061;28;20490;-78
2022/08/20 07:39:00;;;;;;;9.23;5.40;;;23.30;71.40;;;;;;5079090;28;20477;-79
2022/08/20 07:41:33;;;;;;;9.20;5.80;;;23.30;71.40;;;;;;5078314;28;20547;-77
2022/08/20 07:44:01;;;;;;;10.60;5.37;;;23.30;71.40;;;;;;5073332;28;20455;-79
2022/08/20 07:46:30;;;;;;;9.20;5.07;;;23.40;71.50;;;;;;5075083;28;20489;-79
2022/08/20 07:48:58;;;;;;;8.80;5.50;;;23.40;71.60;;;;;;5075825;28;20498;-78
2022/08/20 07:51:28;;;;;;;7.73;5.40;;;23.40;71.70;;;;;;5060727;28;20836;-77
2022/08/20 07:53:57;;;;;;;9.30;6.80;;;23.40;71.90;;;;;;5071249;28;20485;-78
2022/08/20 07:56:25;;;;;;;10.30;6.90;;;23.50;72.00;;;;;;5073563;28;20496;-78
2022/08/20 07:58:57;;;;;;;9.90;6.60;;;23.50;72.20;;;;;;5078657;28;20463;-77
2022/08/20 08:01:29;;;;;;;10.67;7.20;;;23.50;72.50;;;;;;5066186;28;20518;-78
2022/08/20 08:03:57;;;;;;;10.07;6.67;;;23.50;72.80;;;;;;5086189;28;20489;-79
2022/08/20 08:06:29;;;;;;;10.87;7.33;;;23.50;72.90;;;;;;5080390;28;20491;-79
2022/08/20 08:09:05;;;;;;;12.50;7.30;;;23.50;73.10;;;;;;5081926;28;20966;-77
2022/08/20 08:11:36;;;;;;;9.93;6.80;;;23.40;73.30;;;;;;5078534;28;20464;-78
2022/08/20 08:14:06;;;;;;;12.00;7.73;;;23.40;73.50;;;;;;5077503;28;20477;-79
2022/08/20 08:16:34;;;;;;;12.80;8.53;;;23.40;73.80;;;;;;5077485;28;20478;-79
2022/08/20 08:19:06;;;;;;;15.53;8.37;;;23.40;74.10;;;;;;5081126;28;20474;-79
2022/08/20 08:21:35;;;;;;;10.10;7.60;;;23.40;74.40;;;;;;5077463;28;20458;-78
2022/08/20 08:24:03;;;;;;;11.37;7.70;;;23.40;74.60;;;;;;5077266;28;20469;-79
2022/08/20 08:26:31;;;;;;;13.03;9.40;;;23.40;74.70;;;;;;5062030;28;20472;-79
2022/08/20 08:28:59;;;;;;;12.60;9.37;;;23.40;74.90;;;;;;5075900;28;20452;-78
2022/08/20 08:31:27;;;;;;;14.60;10.30;;;23.40;75.20;;;;;;5081634;28;20469;-78
2022/08/20 08:33:55;;;;;;;11.93;8.77;;;23.40;75.30;;;;;;5078479;28;21845;-78
2022/08/20 08:36:25;;;;;;;12.37;8.97;;;23.40;75.60;;;;;;5077494;28;20473;-78
2022/08/20 08:38:55;;;;;;;13.33;9.00;;;23.40;75.80;;;;;;5073983;28;20467;-78
2022/08/20 08:41:30;;;;;;;10.60;8.00;;;23.40;75.90;;;;;;5081620;28;20534;-78
2022/08/20 08:44:06;;;;;;;12.73;8.33;;;23.40;76.10;;;;;;5081166;28;20446;-78
2022/08/20 08:46:40;;;;;;;14.10;9.03;;;23.50;76.10;;;;;;5066298;28;20477;-78
2022/08/20 08:49:12;;;;;;;12.17;8.80;;;23.50;76.20;;;;;;5078111;28;20454;-78
2022/08/20 08:51:43;;;;;;;11.13;8.90;;;23.50;76.40;;;;;;5073411;28;20458;-78
2022/08/20 08:54:16;;;;;;;13.03;8.30;;;23.50;76.50;;;;;;5073415;28;20474;-78
2022/08/20 08:56:44;;;;;;;10.70;8.87;;;23.50;76.70;;;;;;5078543;28;20458;-78
2022/08/20 08:59:18;;;;;;;11.00;7.93;;;23.50;76.60;;;;;;5079968;28;20461;-79
2022/08/20 09:01:50;;;;;;;11.67;8.70;;;23.50;76.90;;;;;;5079093;28;20496;-79
2022/08/20 09:04:30;;;;;;;10.37;7.80;;;23.50;76.90;;;;;;5078330;28;20456;-79
2022/08/20 09:06:59;;;;;;;11.20;7.30;;;23.50;77.10;;;;;;5075282;28;21033;-78
2022/08/20 09:09:32;;;;;;;11.10;7.80;;;23.50;77.10;;;;;;5076910;28;20458;-78
2022/08/20 09:12:05;;;;;;;10.60;7.70;;;23.50;77.10;;;;;;5078135;28;20481;-78
2022/08/20 09:14:33;;;;;;;12.47;7.93;;;23.60;77.10;;;;;;5077264;28;20491;-78
2022/08/20 09:17:01;;;;;;;13.90;7.97;;;23.60;77.20;;;;;;5073814;28;20486;-79
2022/08/20 09:19:29;;;;;;;10.57;7.03;;;23.60;77.10;;;;;;5081454;28;20465;-78
2022/08/20 09:21:57;;;;;;;12.80;7.63;;;23.60;77.20;;;;;;5077084;28;20463;-78
2022/08/20 09:24:25;;;;;;;12.13;7.93;;;23.60;77.10;;;;;;5077742;28;20455;-78
2022/08/20 09:26:55;;;;;;;10.77;7.93;;;23.60;77.10;;;;;;5080820;28;20457;-78
2022/08/20 09:29:22;;;;;;;8.97;6.07;;;23.60;77.10;;;;;;5079140;28;20955;-78
2022/08/20 09:31:50;;;;;;;11.60;8.33;;;23.60;76.90;;;;;;5074884;28;21350;-78
2022/08/20 09:34:19;;;;;;;15.13;8.13;;;23.60;76.90;;;;;;5079000;28;21093;-77
2022/08/20 09:36:47;;;;;;;11.70;8.07;;;23.60;76.90;;;;;;5074124;28;20454;-78
2022/08/20 09:39:15;;;;;;;20.43;9.10;;;23.60;77.00;;;;;;5073821;28;20464;-79
2022/08/20 09:41:43;;;;;;;48.27;10.63;;;23.60;77.00;;;;;;5063107;28;20461;-78
2022/08/20 09:44:12;;;;;;;31.00;11.53;;;23.60;77.10;;;;;;5075700;28;20448;-79
2022/08/20 09:46:40;;;;;;;16.63;9.33;;;23.60;77.20;;;;;;5087935;28;20816;-79
2022/08/20 09:49:08;;;;;;;18.23;8.80;;;23.70;77.30;;;;;;5077964;28;20951;-79
2022/08/20 09:51:37;;;;;;;13.23;8.97;;;23.80;77.40;;;;;;5075567;28;20461;-79
2022/08/20 09:54:06;;;;;;;15.00;10.20;;;23.80;77.40;;;;;;5077124;28;20479;-79
2022/08/20 09:56:35;;;;;;;15.30;9.80;;;23.90;77.40;;;;;;5075602;28;20493;-79
2022/08/20 09:59:03;;;;;;;13.43;9.37;;;23.90;77.40;;;;;;5079037;28;20556;-79
2022/08/20 10:01:33;;;;;;;12.17;9.07;;;24.00;77.40;;;;;;5076688;28;20462;-80
2022/08/20 10:04:01;;;;;;;14.53;9.40;;;24.00;77.40;;;;;;5090551;28;20823;-76
2022/08/20 10:06:29;;;;;;;17.07;10.60;;;24.00;77.30;;;;;;5075075;28;20486;-77
2022/08/20 10:09:04;;;;;;;14.20;9.27;;;24.10;77.30;;;;;;5075443;28;20453;-79
2022/08/20 10:11:32;;;;;;;63.47;49.60;;;24.10;77.20;;;;;;5076255;28;20454;-80
2022/08/20 10:13:59;;;;;;;55.23;41.50;;;24.10;77.20;;;;;;5077151;28;20467;-78
2022/08/20 10:16:27;;;;;;;31.67;24.30;;;24.10;77.10;;;;;;5077610;28;20484;-79
2022/08/20 10:18:57;;;;;;;25.83;15.80;;;24.20;77.10;;;;;;5077052;28;20466;-79
2022/08/20 10:21:25;;;;;;;34.33;12.40;;;24.20;76.90;;;;;;5073826;28;20842;-79
2022/08/20 10:23:53;;;;;;;73.10;15.40;;;24.20;76.90;;;;;;5074187;28;20454;-79
2022/08/20 10:26:21;;;;;;;48.77;11.50;;;24.20;76.90;;;;;;5074283;28;20475;-78
2022/08/20 10:28:49;;;;;;;18.30;12.43;;;24.30;76.90;;;;;;5062209;28;20511;-78
2022/08/20 10:31:17;;;;;;;15.57;10.80;;;24.30;77.00;;;;;;5074002;28;21031;-78
2022/08/20 10:33:44;;;;;;;18.50;10.63;;;24.30;76.90;;;;;;5073784;28;20487;-78
2022/08/20 10:36:16;;;;;;;15.87;11.43;;;24.20;77.00;;;;;;5077707;28;20478;-77
2022/08/20 10:38:45;;;;;;;24.47;11.07;;;24.10;77.30;;;;;;5073652;28;20850;-78
2022/08/20 10:41:12;;;;;;;16.00;10.80;;;24.10;77.30;;;;;;5058839;28;20463;-78
2022/08/20 10:43:40;;;;;;;23.30;11.63;;;24.00;77.40;;;;;;5073604;28;20460;-78
2022/08/20 10:46:09;;;;;;;71.30;14.97;;;24.00;77.40;;;;;;5077167;28;20478;-77
2022/08/20 10:48:37;;;;;;;49.37;12.97;;;24.10;77.30;;;;;;5074543;28;20469;-78
2022/08/20 10:51:05;;;;;;;29.53;11.00;;;24.10;77.30;;;;;;5075116;28;20451;-76
2022/08/20 10:53:35;;;;;;;24.20;10.30;;;24.10;77.20;;;;;;5074630;28;20451;-78
2022/08/20 10:56:04;;;;;;;90.90;13.60;;;24.10;77.10;;;;;;5074236;28;20490;-78
2022/08/20 10:58:32;;;;;;;50.67;11.33;;;24.10;77.00;;;;;;5076202;28;20498;-78
2022/08/20 11:01:07;;;;;;;38.50;11.00;;;24.10;77.00;;;;;;5074040;28;20556;-79
2022/08/20 11:03:35;;;;;;;17.77;8.53;;;24.20;77.00;;;;;;5073450;28;20447;-78
2022/08/20 11:06:04;;;;;;;18.47;8.57;;;24.20;77.00;;;;;;5069778;28;20490;-79
2022/08/20 11:08:32;;;;;;;27.40;7.77;;;24.20;76.90;;;;;;5076494;28;20460;-77
2022/08/20 11:11:05;;;;;;;39.57;8.50;;;24.20;76.90;;;;;;5078461;28;20481;-79
2022/08/20 11:13:33;;;;;;;20.73;7.83;;;24.20;76.60;;;;;;5079502;28;20479;-78
2022/08/20 11:16:02;;;;;;;23.87;8.03;;;24.30;76.40;;;;;;5057227;28;20467;-78
2022/08/20 11:18:31;;;;;;;17.37;6.93;;;24.30;76.20;;;;;;5074683;28;20446;-78
2022/08/20 11:21:00;;;;;;;17.90;7.27;;;24.30;76.10;;;;;;5078015;28;20468;-77
2022/08/20 11:23:28;;;;;;;21.77;8.23;;;24.30;75.90;;;;;;5076929;28;21138;-78
2022/08/20 11:25:57;;;;;;;39.73;7.80;;;24.30;75.90;;;;;;5075739;28;20573;-78
2022/08/20 11:28:30;;;;;;;22.33;7.37;;;24.30;75.90;;;;;;5062961;28;20456;-77
2022/08/20 11:31:00;;;;;;;25.03;7.77;;;24.40;75.60;;;;;;5075128;28;20462;-77
2022/08/20 11:33:28;;;;;;;42.13;8.90;;;24.50;75.40;;;;;;5078469;28;20515;-77
2022/08/20 11:35:56;;;;;;;99.57;11.83;;;24.50;75.10;;;;;;5080390;28;20847;-77
2022/08/20 11:38:24;;;;;;;75.83;11.00;;;24.50;74.90;;;;;;5083961;28;20482;-77
2022/08/20 11:40:52;;;;;;;12.20;6.30;;;24.60;74.70;;;;;;5090481;28;20456;-78
2022/08/20 11:43:20;;;;;;;12.17;5.77;;;24.60;74.50;;;;;;5068258;28;20483;-78
2022/08/20 11:45:53;;;;;;;9.77;5.77;;;24.70;74.00;;;;;;5086706;28;20526;-77
2022/08/20 11:48:47;;;;;;;10.10;5.20;;;24.70;74.00;;;;;;5090415;28;20483;-78
2022/08/20 11:51:17;;;;;;;11.17;5.77;;;24.80;73.80;;;;;;5083752;28;20474;-78
2022/08/20 11:53:45;;;;;;;6.70;4.87;;;24.80;73.80;;;;;;5085153;28;20451;-78
2022/08/20 11:56:15;;;;;;;7.27;5.13;;;24.80;73.60;;;;;;5080714;28;20894;-79
2022/08/20 11:58:44;;;;;;;6.73;4.53;;;24.90;73.40;;;;;;5082238;28;21079;-77
2022/08/20 12:01:14;;;;;;;8.03;5.07;;;24.90;73.20;;;;;;5074440;28;20465;-77
2022/08/20 12:03:42;;;;;;;6.73;4.80;;;24.90;73.00;;;;;;5083614;28;21065;-78
2022/08/20 12:06:10;;;;;;;7.77;4.77;;;25.00;72.50;;;;;;5076890;28;20480;-78
2022/08/20 12:08:38;;;;;;;6.10;4.37;;;25.00;72.50;;;;;;5068336;28;20460;-78
2022/08/20 12:11:06;;;;;;;6.27;4.23;;;25.00;72.20;;;;;;5079039;28;21293;-77
2022/08/20 12:13:36;;;;;;;6.63;4.60;;;25.00;72.00;;;;;;5084539;28;20459;-78
2022/08/20 12:16:17;;;;;;;11.60;4.17;;;25.00;72.00;;;;;;5081057;28;20492;-78
2022/08/20 12:18:46;;;;;;;8.60;4.23;;;25.00;72.00;;;;;;5080254;28;20456;-78
2022/08/20 12:21:14;;;;;;;8.70;3.57;;;25.10;71.90;;;;;;5067040;28;20828;-78
2022/08/20 12:23:42;;;;;;;7.17;4.40;;;25.10;71.70;;;;;;5065217;28;20845;-78
2022/08/20 12:26:11;;;;;;;6.67;4.63;;;25.10;71.50;;;;;;5080144;28;20478;-77
2022/08/20 12:28:39;;;;;;;9.10;4.40;;;25.10;71.40;;;;;;5080042;28;20457;-78
2022/08/20 12:31:06;;;;;;;8.80;4.50;;;25.10;71.40;;;;;;5077092;28;20478;-76
2022/08/20 12:33:36;;;;;;;5.50;3.40;;;25.10;71.20;;;;;;5080821;28;20457;-78
2022/08/20 12:36:04;;;;;;;7.53;3.77;;;25.10;71.10;;;;;;5083418;28;20912;-78
2022/08/20 12:38:32;;;;;;;7.17;4.37;;;25.20;70.90;;;;;;5064218;28;20532;-78
2022/08/20 12:41:01;;;;;;;8.60;4.40;;;25.10;70.90;;;;;;5065056;28;20510;-78
2022/08/20 12:43:29;;;;;;;5.43;3.33;;;25.10;70.80;;;;;;5081217;28;20460;-77
2022/08/20 12:45:57;;;;;;;6.50;4.43;;;25.10;70.60;;;;;;5083886;28;20491;-78
2022/08/20 12:48:25;;;;;;;10.30;4.20;;;25.20;70.60;;;;;;5081444;28;20454;-78
2022/08/20 12:50:54;;;;;;;8.87;4.50;;;25.20;70.70;;;;;;5076435;28;20452;-78
2022/08/20 12:53:22;;;;;;;6.00;3.90;;;25.10;70.90;;;;;;5076833;28;20462;-76
2022/08/20 12:55:50;;;;;;;5.43;3.20;;;25.10;70.90;;;;;;5079138;28;20491;-78
2022/08/20 12:58:18;;;;;;;4.83;2.50;;;25.20;70.70;;;;;;5083033;28;20829;-78
2022/08/20 13:00:47;;;;;;;5.13;2.80;;;25.10;70.70;;;;;;5075758;28;21029;-77